Time;durP1;ratioP1;P1;durP2;ratioP2;P2;SDS_P1;SDS_P2;PMS_P1;PMS_P2;Temp;Humidity;BMP_temperature;BMP_pressure;BME280_temperature;BME280_humidity;BME280_pressure;Samples;Min_cycle;Max_cycle;Signal;HPM_P1;HPM_P2
2021/12/08 00:02:15;;;;;;;75.63;10.93;;;4.50;92.10;;;;;;5055880;28;20033;-45
2021/12/08 00:04:42;;;;;;;212.45;18.25;;;4.50;92.20;;;;;;5055734;28;20087;-45
2021/12/08 00:07:08;;;;;;;55.22;9.68;;;4.50;92.30;;;;;;5055949;28;20033;-45
2021/12/08 00:09:48;;;;;;;146.80;13.70;;;4.50;92.20;;;;;;5056019;28;20064;-46
2021/12/08 00:15:00;;;;;;;67.93;10.18;;;4.50;92.20;;;;;;5056327;28;20047;-39
2021/12/08 00:17:26;;;;;;;132.25;15.60;;;4.50;92.20;;;;;;5056022;28;20052;-33
2021/12/08 00:19:52;;;;;;;102.50;11.60;;;4.50;92.20;;;;;;5055844;28;20025;-33
2021/12/08 00:22:18;;;;;;;200.55;16.85;;;4.50;92.20;;;;;;5055826;28;20116;-33
2021/12/08 00:24:44;;;;;;;158.55;14.82;;;4.50;92.20;;;;;;5055892;28;20112;-35
2021/12/08 00:27:11;;;;;;;93.68;11.18;;;4.50;92.20;;;;;;5055511;28;20033;-33
2021/12/08 00:29:37;;;;;;;70.00;9.43;;;4.50;92.10;;;;;;5055405;28;20036;-45
2021/12/08 00:32:04;;;;;;;51.47;7.78;;;4.40;92.20;;;;;;5055650;28;20091;-34
2021/12/08 00:34:31;;;;;;;49.70;9.60;;;4.40;92.20;;;;;;5055621;28;20021;-33
2021/12/08 00:37:00;;;;;;;221.90;16.63;;;4.50;92.40;;;;;;5055734;28;20029;-33
2021/12/08 00:39:26;;;;;;;68.72;9.23;;;4.40;92.30;;;;;;5055582;28;20043;-46
2021/12/08 00:41:52;;;;;;;63.20;9.00;;;4.50;92.30;;;;;;5055796;28;20037;-45
2021/12/08 00:44:17;;;;;;;152.20;12.38;;;4.50;92.40;;;;;;5055426;28;20028;-33
2021/12/08 00:46:44;;;;;;;97.75;10.13;;;4.40;92.20;;;;;;5055500;28;20033;-45
2021/12/08 00:49:11;;;;;;;44.95;7.57;;;4.40;92.30;;;;;;5056051;28;20118;-33
2021/12/08 00:51:38;;;;;;;78.10;9.32;;;4.40;92.20;;;;;;5059309;28;20037;-34
2021/12/08 00:54:04;;;;;;;28.83;6.50;;;4.40;92.30;;;;;;5059143;28;20032;-34
2021/12/08 00:56:30;;;;;;;35.40;8.77;;;4.40;92.30;;;;;;5057997;28;20486;-44
2021/12/08 00:58:56;;;;;;;47.20;7.93;;;4.40;92.30;;;;;;5059341;28;20053;-34
2021/12/08 01:01:22;;;;;;;13.82;5.65;;;4.40;92.30;;;;;;5059035;28;20475;-45
2021/12/08 01:03:49;;;;;;;32.17;6.05;;;4.40;92.40;;;;;;5059243;28;20029;-35
2021/12/08 01:06:16;;;;;;;31.35;6.10;;;4.40;92.50;;;;;;5059532;28;20353;-45
2021/12/08 01:08:42;;;;;;;67.97;8.18;;;4.50;92.40;;;;;;5059078;28;20029;-33
2021/12/08 01:11:13;;;;;;;37.97;7.88;;;4.50;92.40;;;;;;5058858;28;20519;-36
2021/12/08 01:13:39;;;;;;;19.23;5.72;;;4.50;92.40;;;;;;5058853;28;20029;-45
2021/12/08 01:16:05;;;;;;;23.58;5.18;;;4.50;92.30;;;;;;5059123;28;20226;-33
2021/12/08 01:18:32;;;;;;;63.90;8.73;;;4.50;92.40;;;;;;5059060;28;20329;-33
2021/12/08 01:21:00;;;;;;;22.15;4.82;;;4.50;92.40;;;;;;5059210;28;20029;-33
2021/12/08 01:23:27;;;;;;;35.53;6.80;;;4.50;92.30;;;;;;5058938;28;20395;-34
2021/12/08 01:25:53;;;;;;;35.92;6.65;;;4.50;92.30;;;;;;5058962;28;20052;-33
2021/12/08 01:28:21;;;;;;;14.52;4.32;;;4.50;92.40;;;;;;5058602;28;20044;-34
2021/12/08 01:30:49;;;;;;;11.68;4.50;;;4.50;92.40;;;;;;5058733;28;20072;-45
2021/12/08 01:33:15;;;;;;;22.60;4.70;;;4.50;92.40;;;;;;5058701;28;20432;-45
2021/12/08 01:35:40;;;;;;;14.55;4.60;;;4.60;92.40;;;;;;5058794;28;20305;-33
2021/12/08 01:38:06;;;;;;;14.52;4.90;;;4.60;92.40;;;;;;5058699;28;20037;-33
2021/12/08 01:40:32;;;;;;;8.57;4.00;;;4.60;92.40;;;;;;5058640;28;20083;-45
2021/12/08 01:43:00;;;;;;;10.20;3.97;;;4.60;92.50;;;;;;5058288;28;20041;-45
2021/12/08 01:48:16;;;;;;;14.38;4.53;;;4.60;92.50;;;;;;5058594;28;20452;-35
2021/12/08 01:50:45;;;;;;;9.88;4.40;;;4.70;92.50;;;;;;5057956;28;20445;-48
2021/12/08 01:53:11;;;;;;;9.82;4.40;;;4.70;92.40;;;;;;5058669;28;20051;-46
2021/12/08 01:55:39;;;;;;;8.57;4.00;;;4.70;92.40;;;;;;5058453;28;20118;-34
2021/12/08 01:58:07;;;;;;;8.25;3.38;;;4.70;92.20;;;;;;5057942;28;20021;-45
2021/12/08 02:00:37;;;;;;;9.40;3.70;;;4.70;92.10;;;;;;5057838;28;20133;-46
2021/12/08 02:03:03;;;;;;;7.22;3.90;;;4.70;92.10;;;;;;5058048;28;20029;-46
2021/12/08 02:05:29;;;;;;;8.40;3.88;;;4.70;92.00;;;;;;5058238;28;20071;-46
2021/12/08 02:07:55;;;;;;;7.47;3.40;;;4.70;92.10;;;;;;5057924;28;20039;-34
2021/12/08 02:10:21;;;;;;;5.90;2.90;;;4.70;92.10;;;;;;5058032;28;20029;-35
2021/12/08 02:12:48;;;;;;;5.30;2.83;;;4.80;91.90;;;;;;5057731;28;20040;-33
2021/12/08 02:15:16;;;;;;;5.93;3.15;;;4.70;91.90;;;;;;5057843;28;20040;-44
2021/12/08 02:17:43;;;;;;;6.30;2.80;;;4.70;91.90;;;;;;5058224;28;20029;-32
2021/12/08 02:20:11;;;;;;;6.95;2.92;;;4.70;91.90;;;;;;5057899;28;20033;-45
2021/12/08 02:22:38;;;;;;;8.25;3.42;;;4.70;91.90;;;;;;5056497;28;20062;-32
2021/12/08 02:25:07;;;;;;;7.25;3.40;;;4.70;91.90;;;;;;5057605;28;20033;-35
2021/12/08 02:27:33;;;;;;;7.40;2.95;;;4.70;91.90;;;;;;5057670;28;20087;-45
2021/12/08 02:30:09;;;;;;;6.72;2.83;;;4.70;91.80;;;;;;5057800;28;20036;-33
2021/12/08 02:49:02;;;;;;;6.53;2.75;;;4.60;91.60;;;;;;5057111;28;20106;-36
2021/12/08 02:51:28;;;;;;;10.50;3.50;;;4.60;91.70;;;;;;5057078;28;20029;-44
2021/12/08 02:53:54;;;;;;;12.00;3.60;;;4.60;91.70;;;;;;5056905;28;20028;-44
2021/12/08 02:56:20;;;;;;;10.10;3.40;;;4.60;91.60;;;;;;5057053;28;20100;-35
2021/12/08 02:58:47;;;;;;;8.18;3.60;;;4.60;91.70;;;;;;5056776;28;20229;-45
2021/12/08 03:01:13;;;;;;;9.38;3.33;;;4.60;91.70;;;;;;5057129;28;20086;-32
2021/12/08 03:03:39;;;;;;;7.78;3.28;;;4.60;91.70;;;;;;5057015;28;20298;-44
2021/12/08 03:06:06;;;;;;;12.90;4.70;;;4.60;91.60;;;;;;5057166;28;20178;-34
2021/12/08 03:08:31;;;;;;;12.50;3.72;;;4.60;91.60;;;;;;5056953;28;20029;-44
2021/12/08 03:10:59;;;;;;;26.00;5.20;;;4.50;91.60;;;;;;5056970;28;20298;-45
2021/12/08 03:13:37;;;;;;;14.50;4.75;;;4.50;91.60;;;;;;5055933;28;20060;-45
2021/12/08 03:16:05;;;;;;;24.38;4.50;;;4.50;91.60;;;;;;5056957;28;20036;-45
2021/12/08 03:18:34;;;;;;;12.43;3.70;;;4.50;91.60;;;;;;5056848;28;20483;-44
2021/12/08 03:21:01;;;;;;;13.10;3.88;;;4.40;91.60;;;;;;5056945;28;20037;-34
2021/12/08 03:23:34;;;;;;;27.95;5.15;;;4.40;91.70;;;;;;5056380;28;20218;-45
2021/12/08 03:26:03;;;;;;;10.52;3.47;;;4.40;91.90;;;;;;5056998;28;20313;-45
2021/12/08 03:28:34;;;;;;;44.08;5.55;;;4.40;91.90;;;;;;5056527;28;20079;-34
2021/12/08 03:33:26;;;;;;;42.53;5.72;;;4.40;91.80;;;;;;5056685;28;19951;-44
2021/12/08 03:35:52;;;;;;;94.05;7.60;;;4.40;92.10;;;;;;5056605;28;20032;-33
2021/12/08 03:38:19;;;;;;;56.38;8.15;;;4.40;92.20;;;;;;5056231;28;20425;-45
2021/12/08 03:40:47;;;;;;;88.85;7.30;;;4.50;92.20;;;;;;5056373;28;20033;-33
2021/12/08 03:43:13;;;;;;;143.63;11.07;;;4.50;92.20;;;;;;5056313;28;20109;-44
2021/12/08 03:45:44;;;;;;;48.40;5.75;;;4.50;92.20;;;;;;5056334;28;20317;-32
2021/12/08 03:48:14;;;;;;;142.95;12.57;;;4.50;92.20;;;;;;5056028;28;20087;-45
2021/12/08 03:50:43;;;;;;;79.43;7.60;;;4.50;92.20;;;;;;5055562;28;20101;-33
2021/12/08 03:53:12;;;;;;;178.52;15.80;;;4.50;92.10;;;;;;5056344;28;20263;-33
2021/12/08 03:55:39;;;;;;;141.52;12.07;;;4.50;92.20;;;;;;5056337;28;20037;-33
2021/12/08 03:58:05;;;;;;;86.63;9.48;;;4.50;92.10;;;;;;5056149;28;20037;-45
2021/12/08 04:00:31;;;;;;;174.57;14.27;;;4.50;92.20;;;;;;5056108;28;20344;-44
2021/12/08 04:02:59;;;;;;;265.85;20.75;;;4.50;92.20;;;;;;5055838;28;20120;-44
2021/12/08 04:05:39;;;;;;;10.98;3.78;;;4.50;92.30;;;;;;5056188;28;20400;-45
2021/12/08 04:08:16;;;;;;;55.95;6.57;;;4.50;92.50;;;;;;5055655;28;20037;-45
2021/12/08 04:10:48;;;;;;;151.43;11.80;;;4.60;92.60;;;;;;5056048;28;20099;-44
2021/12/08 04:13:14;;;;;;;136.57;11.20;;;4.60;92.60;;;;;;5055962;28;20049;-45
2021/12/08 04:15:40;;;;;;;73.72;6.68;;;4.60;92.60;;;;;;5056119;28;20032;-33
2021/12/08 04:18:06;;;;;;;33.95;7.35;;;4.70;92.60;;;;;;5055955;28;20033;-45
2021/12/08 04:20:40;;;;;;;47.05;6.25;;;4.70;92.70;;;;;;5055985;28;20033;-44
2021/12/08 04:23:07;;;;;;;45.72;6.45;;;4.70;92.60;;;;;;5056728;28;20040;-34
2021/12/08 04:25:38;;;;;;;140.52;11.77;;;4.80;92.70;;;;;;5059557;28;20036;-45
2021/12/08 04:28:08;;;;;;;126.85;12.38;;;4.80;92.50;;;;;;5059607;28;20033;-44
2021/12/08 04:30:47;;;;;;;232.60;15.90;;;4.80;92.50;;;;;;5059910;28;20051;-33
2021/12/08 04:33:13;;;;;;;197.48;17.10;;;4.90;92.30;;;;;;5059477;28;20262;-34
2021/12/08 04:35:41;;;;;;;143.50;13.55;;;4.90;92.60;;;;;;5059799;28;20021;-33
2021/12/08 04:38:12;;;;;;;70.20;8.75;;;4.90;92.30;;;;;;5059386;28;20429;-34
2021/12/08 04:43:53;;;;;;;109.10;12.18;;;5.00;92.20;;;;;;5058669;28;20049;-32
2021/12/08 04:49:40;;;;;;;156.90;15.55;;;5.00;92.10;;;;;;5059098;28;20467;-45
2021/12/08 05:08:43;;;;;;;71.88;9.57;;;4.90;92.10;;;;;;5059104;28;20032;-46
2021/12/08 05:11:17;;;;;;;167.68;14.77;;;4.90;92.10;;;;;;5058997;28;20051;-34
2021/12/08 05:13:46;;;;;;;78.03;8.98;;;4.90;91.90;;;;;;5058965;28;20037;-45
2021/12/08 05:16:14;;;;;;;218.73;17.27;;;4.90;91.90;;;;;;5058944;28;20072;-33
2021/12/08 05:18:43;;;;;;;198.68;16.10;;;4.90;92.00;;;;;;5058932;28;20025;-34
2021/12/08 05:21:15;;;;;;;126.57;12.65;;;4.90;92.00;;;;;;5058854;28;20043;-45
2021/12/08 05:24:01;;;;;;;208.60;17.10;;;4.90;92.10;;;;;;5058555;28;20037;-45
2021/12/08 05:26:53;;;;;;;90.60;11.75;;;4.90;92.00;;;;;;5058373;28;20110;-45
2021/12/08 05:29:41;;;;;;;297.13;32.05;;;4.90;92.20;;;;;;5058211;28;20069;-45
2021/12/08 05:32:08;;;;;;;134.63;16.85;;;4.90;92.10;;;;;;5058339;28;20037;-33
2021/12/08 05:34:35;;;;;;;142.38;17.45;;;4.90;92.20;;;;;;5058067;28;20401;-33
2021/12/08 05:37:02;;;;;;;116.72;14.35;;;4.90;92.30;;;;;;5058314;28;20364;-45
2021/12/08 05:39:31;;;;;;;71.25;16.60;;;4.90;92.20;;;;;;5058084;28;20036;-44
2021/12/08 05:42:02;;;;;;;29.05;10.00;;;4.90;92.20;;;;;;5058202;28;20337;-33
2021/12/08 05:44:28;;;;;;;212.52;19.98;;;5.00;92.20;;;;;;5058322;28;20047;-45
2021/12/08 05:46:57;;;;;;;160.70;17.30;;;5.00;92.20;;;;;;5058001;28;20033;-33
2021/12/08 05:49:23;;;;;;;105.78;12.50;;;4.90;92.30;;;;;;5057845;28;20459;-34
2021/12/08 05:51:51;;;;;;;147.77;14.93;;;5.00;92.30;;;;;;5058165;28;20031;-33
2021/12/08 05:54:24;;;;;;;160.48;16.08;;;5.00;92.30;;;;;;5050909;28;20108;-45
2021/12/08 05:56:54;;;;;;;119.18;13.13;;;5.00;92.40;;;;;;5040633;28;20029;-34
2021/12/08 05:59:20;;;;;;;36.60;8.38;;;5.00;92.40;;;;;;5038098;28;20037;-33
2021/12/08 06:02:01;;;;;;;94.03;10.82;;;5.00;92.50;;;;;;5037456;28;20037;-45
2021/12/08 06:04:28;;;;;;;;;;;5.00;92.50;;;;;;5037954;28;20065;-45
2021/12/08 06:06:54;;;;;;;84.00;12.55;;;5.00;92.30;;;;;;5037747;28;19915;-46
2021/12/08 06:09:24;;;;;;;69.03;11.38;;;5.00;92.50;;;;;;5037748;28;20398;-46
2021/12/08 06:11:52;;;;;;;83.57;11.77;;;5.00;92.60;;;;;;5037537;28;20456;-45
2021/12/08 06:14:21;;;;;;;78.32;11.85;;;5.10;92.60;;;;;;5037223;28;20023;-33
2021/12/08 06:16:51;;;;;;;174.10;17.08;;;5.10;92.60;;;;;;5037661;28;20033;-45
2021/12/08 06:19:19;;;;;;;227.95;21.92;;;5.10;92.70;;;;;;5037609;28;20025;-33
2021/12/08 06:21:46;;;;;;;153.02;17.15;;;5.20;92.70;;;;;;5037444;28;20087;-33
2021/12/08 06:24:13;;;;;;;270.75;24.33;;;5.20;92.70;;;;;;5037424;28;20064;-41
2021/12/08 06:26:40;;;;;;;211.00;20.48;;;5.20;92.70;;;;;;5037089;28;20041;-45
2021/12/08 06:29:08;;;;;;;79.53;11.40;;;5.20;92.70;;;;;;5037373;28;20033;-33
2021/12/08 06:31:37;;;;;;;252.00;23.88;;;5.30;92.70;;;;;;5036857;28;20406;-33
2021/12/08 06:34:04;;;;;;;125.80;14.48;;;5.30;92.60;;;;;;5037155;28;20029;-33
2021/12/08 06:36:41;;;;;;;178.88;17.70;;;5.30;92.60;;;;;;5037031;28;20030;-45
2021/12/08 06:39:10;;;;;;;192.50;18.67;;;5.40;92.50;;;;;;5037281;28;20030;-45
2021/12/08 06:41:40;;;;;;;337.45;26.67;;;5.40;92.60;;;;;;5036904;28;20057;-33
2021/12/08 06:44:11;;;;;;;141.38;19.52;;;5.40;92.60;;;;;;5037041;28;20125;-35
2021/12/08 06:46:38;;;;;;;184.05;21.60;;;5.50;92.60;;;;;;5037023;28;20076;-45
2021/12/08 06:49:07;;;;;;;398.63;34.90;;;5.50;92.70;;;;;;5036568;28;20056;-33
2021/12/08 06:51:48;;;;;;;271.45;25.85;;;5.50;92.70;;;;;;5036543;28;20088;-34
2021/12/08 06:54:20;;;;;;;444.50;43.15;;;5.60;92.70;;;;;;5036980;28;20029;-45
2021/12/08 06:56:54;;;;;;;281.80;24.20;;;5.60;92.70;;;;;;5036659;28;20038;-45
2021/12/08 06:59:25;;;;;;;121.82;15.98;;;5.70;92.70;;;;;;5036827;28;20053;-45
2021/12/08 07:02:04;;;;;;;305.30;29.67;;;5.70;92.60;;;;;;5036691;28;20333;-45
2021/12/08 07:04:55;;;;;;;242.15;24.55;;;5.70;92.60;;;;;;5036825;28;20325;-45
2021/12/08 07:07:26;;;;;;;295.75;26.05;;;5.70;92.50;;;;;;5036715;28;20036;-33
2021/12/08 07:09:59;;;;;;;45.88;11.73;;;5.80;92.50;;;;;;5036771;28;20033;-45
2021/12/08 07:12:33;;;;;;;128.73;17.58;;;5.80;92.40;;;;;;5036502;28;20144;-33
2021/12/08 07:15:10;;;;;;;186.00;21.55;;;5.80;92.40;;;;;;5036851;28;20025;-34
2021/12/08 07:17:40;;;;;;;316.63;28.48;;;5.80;92.40;;;;;;5036197;28;20405;-33
2021/12/08 07:20:34;;;;;;;122.13;18.20;;;5.80;92.30;;;;;;5036518;28;20072;-45
2021/12/08 07:23:00;;;;;;;185.10;20.80;;;5.80;92.40;;;;;;5036222;28;20044;-45
2021/12/08 07:25:30;;;;;;;162.82;18.45;;;5.80;92.50;;;;;;5036482;28;20025;-45
2021/12/08 07:27:56;;;;;;;275.17;25.17;;;5.80;92.40;;;;;;5036317;28;20400;-45
2021/12/08 07:30:38;;;;;;;177.20;19.25;;;5.90;92.40;;;;;;5036253;28;20060;-45
2021/12/08 07:33:04;;;;;;;208.38;21.63;;;5.90;92.40;;;;;;5035930;28;20038;-45
2021/12/08 07:35:36;;;;;;;297.35;27.63;;;5.90;92.40;;;;;;5036468;28;20079;-45
2021/12/08 07:38:04;;;;;;;260.98;24.95;;;5.90;92.40;;;;;;5035136;28;20033;-33
2021/12/08 07:40:40;;;;;;;373.98;31.05;;;5.90;92.40;;;;;;5036316;28;20022;-34
2021/12/08 07:43:12;;;;;;;129.25;17.73;;;5.90;92.40;;;;;;5036360;28;20421;-45
2021/12/08 07:46:02;;;;;;;218.73;40.33;;;6.00;92.50;;;;;;5035722;28;20029;-33
2021/12/08 07:48:34;;;;;;;123.05;19.23;;;6.00;92.60;;;;;;5035797;28;20029;-34
2021/12/08 07:51:06;;;;;;;59.85;17.25;;;6.00;92.60;;;;;;5035714;28;20060;-33
2021/12/08 07:53:33;;;;;;;63.83;15.65;;;6.00;92.60;;;;;;5034724;28;20029;-32
2021/12/08 07:56:04;;;;;;;109.38;23.27;;;6.10;92.70;;;;;;5036411;28;20021;-34
2021/12/08 07:58:32;;;;;;;107.90;18.35;;;6.10;92.60;;;;;;5035759;28;20477;-33
2021/12/08 08:01:04;;;;;;;81.38;17.15;;;6.10;92.50;;;;;;5036334;28;20317;-44
2021/12/08 08:03:32;;;;;;;182.75;21.75;;;6.10;92.50;;;;;;5035630;28;20033;-45
2021/12/08 08:06:01;;;;;;;61.25;16.52;;;6.20;92.50;;;;;;5035908;28;20065;-35
2021/12/08 08:08:31;;;;;;;83.55;15.38;;;6.20;92.50;;;;;;5035717;28;20040;-34
2021/12/08 08:11:06;;;;;;;103.82;18.73;;;6.20;92.40;;;;;;5051786;28;20036;-34
2021/12/08 08:13:31;;;;;;;167.15;19.10;;;6.30;92.40;;;;;;5054771;28;20100;-33
2021/12/08 08:16:07;;;;;;;150.57;20.75;;;6.20;92.40;;;;;;5055467;28;20035;-33
2021/12/08 08:18:39;;;;;;;112.88;16.52;;;6.30;92.40;;;;;;5054036;28;20091;-45
2021/12/08 08:21:10;;;;;;;105.10;16.35;;;6.30;92.40;;;;;;5053917;28;20044;-45
2021/12/08 08:23:37;;;;;;;137.18;20.00;;;6.30;92.40;;;;;;5054341;28;20033;-33
2021/12/08 08:26:05;;;;;;;108.30;20.25;;;6.40;92.40;;;;;;5054986;28;20356;-44
2021/12/08 08:28:32;;;;;;;128.52;21.92;;;6.40;92.40;;;;;;5054652;28;20139;-45
2021/12/08 08:31:09;;;;;;;115.22;24.15;;;6.40;92.50;;;;;;5054149;28;20037;-36
2021/12/08 08:33:37;;;;;;;82.55;23.85;;;6.40;92.50;;;;;;5054776;28;20060;-45
2021/12/08 08:36:09;;;;;;;79.65;26.02;;;6.50;92.60;;;;;;5054909;28;20119;-47
2021/12/08 08:38:43;;;;;;;79.30;31.92;;;6.50;92.50;;;;;;5054619;28;20069;-47
2021/12/08 08:41:20;;;;;;;100.28;45.85;;;6.50;92.60;;;;;;5054474;28;20159;-39
2021/12/08 08:43:48;;;;;;;80.18;32.00;;;6.60;92.60;;;;;;5054688;28;20033;-47
2021/12/08 08:46:20;;;;;;;64.78;29.33;;;6.60;92.50;;;;;;5054319;28;20033;-36
2021/12/08 08:48:51;;;;;;;64.20;32.22;;;6.70;92.50;;;;;;5054486;28;20063;-36
2021/12/08 08:51:45;;;;;;;75.50;35.05;;;6.70;92.30;;;;;;5054460;28;20033;-45
2021/12/08 08:54:19;;;;;;;104.30;46.80;;;6.70;92.10;;;;;;5054516;28;20060;-40
2021/12/08 08:56:53;;;;;;;67.50;33.10;;;6.80;92.00;;;;;;5055281;28;20033;-45
2021/12/08 08:59:33;;;;;;;75.88;39.20;;;6.80;92.00;;;;;;5055068;28;20033;-34
2021/12/08 09:02:03;;;;;;;93.93;49.13;;;6.80;91.80;;;;;;5055324;28;20306;-36
2021/12/08 09:04:32;;;;;;;157.63;69.73;;;6.80;91.80;;;;;;5055052;28;20041;-44
2021/12/08 09:07:02;;;;;;;114.40;55.47;;;6.80;91.70;;;;;;5055305;28;20025;-34
2021/12/08 09:09:32;;;;;;;129.98;62.95;;;6.80;91.60;;;;;;5055086;28;20044;-35
2021/12/08 09:12:46;;;;;;;58.10;32.25;;;6.80;91.60;;;;;;5058891;28;20356;-33
2021/12/08 09:15:37;;;;;;;58.10;31.40;;;6.80;91.40;;;;;;5056160;28;20071;-45
2021/12/08 09:18:14;;;;;;;64.22;32.70;;;6.80;91.30;;;;;;5056064;28;20025;-36
2021/12/08 09:21:00;;;;;;;86.07;50.90;;;6.80;91.30;;;;;;5056588;28;20124;-37
2021/12/08 09:23:31;;;;;;;83.45;48.25;;;6.80;91.30;;;;;;5058732;28;20037;-45
2021/12/08 09:26:03;;;;;;;64.32;34.20;;;6.80;91.20;;;;;;5059136;28;20040;-33
2021/12/08 09:28:37;;;;;;;69.85;36.15;;;6.80;91.20;;;;;;5058382;28;20036;-34
2021/12/08 09:31:23;;;;;;;61.47;30.75;;;6.90;91.20;;;;;;5057185;28;20029;-35
2021/12/08 09:34:03;;;;;;;53.83;28.00;;;6.90;91.10;;;;;;5058255;28;20036;-33
2021/12/08 09:36:38;;;;;;;58.60;31.55;;;6.90;91.10;;;;;;5058462;28;20075;-35
2021/12/08 09:39:21;;;;;;;76.95;41.10;;;6.90;91.10;;;;;;5058302;28;20467;-45
2021/12/08 09:41:56;;;;;;;74.30;34.38;;;6.90;91.00;;;;;;5058431;28;20451;-34
2021/12/08 09:44:29;;;;;;;66.53;32.85;;;6.90;90.90;;;;;;5058146;28;20065;-45
2021/12/08 09:46:55;;;;;;;67.43;34.80;;;6.90;91.00;;;;;;5058257;28;20043;-45
2021/12/08 09:49:24;;;;;;;64.22;31.50;;;6.90;90.90;;;;;;5057908;28;20041;-45
2021/12/08 09:51:52;;;;;;;66.72;37.65;;;6.90;90.80;;;;;;5057866;28;20041;-45
2021/12/08 09:54:17;;;;;;;56.17;30.88;;;6.90;90.80;;;;;;5057959;28;20029;-45
2021/12/08 09:56:46;;;;;;;54.10;31.60;;;6.90;90.80;;;;;;5058108;28;20032;-34
2021/12/08 09:59:12;;;;;;;55.35;32.10;;;6.90;90.80;;;;;;5057688;28;20402;-45
2021/12/08 10:01:41;;;;;;;57.53;31.40;;;6.90;90.80;;;;;;5057584;28;20043;-45
2021/12/08 10:04:09;;;;;;;54.35;28.70;;;6.90;90.80;;;;;;5057549;28;20047;-45
2021/12/08 10:06:36;;;;;;;56.60;31.52;;;6.90;90.70;;;;;;5057574;28;20063;-33
2021/12/08 10:09:03;;;;;;;64.30;36.00;;;6.90;90.70;;;;;;5057432;28;20108;-33
2021/12/08 10:11:31;;;;;;;48.80;28.30;;;6.90;90.60;;;;;;5057603;28;20033;-33
2021/12/08 10:13:57;;;;;;;50.35;28.17;;;6.90;90.70;;;;;;5057343;28;20021;-33
2021/12/08 10:16:23;;;;;;;50.38;29.48;;;6.90;90.60;;;;;;5057600;28;20136;-45
2021/12/08 10:18:50;;;;;;;49.78;29.02;;;6.90;90.50;;;;;;5057443;28;20056;-45
2021/12/08 10:21:16;;;;;;;70.93;39.20;;;6.90;90.50;;;;;;5057622;28;20321;-33
2021/12/08 10:23:45;;;;;;;74.30;40.22;;;6.80;90.50;;;;;;5057379;28;20029;-34
2021/12/08 10:26:12;;;;;;;55.08;29.45;;;6.90;90.60;;;;;;5057142;28;20040;-43
2021/12/08 10:28:39;;;;;;;54.28;29.33;;;6.90;90.50;;;;;;5057173;28;20451;-33
2021/12/08 10:31:12;;;;;;;53.78;29.17;;;6.90;90.50;;;;;;5057516;28;20071;-45
2021/12/08 10:39:34;;;;;;;62.83;30.83;;;6.90;90.60;;;;;;5057185;28;20098;-44
2021/12/08 10:42:22;;;;;;;53.72;26.10;;;6.90;90.50;;;;;;5056647;28;20124;-33
2021/12/08 10:44:52;;;;;;;57.55;29.05;;;6.90;90.60;;;;;;5056675;28;20111;-33
2021/12/08 10:47:21;;;;;;;68.50;31.23;;;6.90;90.60;;;;;;5056641;28;20037;-35
2021/12/08 10:55:05;;;;;;;62.03;29.15;;;6.90;90.60;;;;;;5056851;28;20039;-34
2021/12/08 10:57:34;;;;;;;63.38;28.92;;;6.90;90.60;;;;;;5056490;28;20029;-45
2021/12/08 11:00:06;;;;;;;59.03;27.23;;;6.90;90.70;;;;;;5056990;28;20069;-45
2021/12/08 11:02:55;;;;;;;70.72;30.65;;;6.90;90.60;;;;;;5056589;28;20041;-33
2021/12/08 11:05:30;;;;;;;59.80;27.00;;;6.90;90.60;;;;;;5056773;28;20064;-35
2021/12/08 11:08:06;;;;;;;59.38;29.15;;;6.90;90.60;;;;;;5056713;28;20049;-33
2021/12/08 11:10:41;;;;;;;62.20;28.30;;;6.90;90.60;;;;;;5056714;28;20295;-45
2021/12/08 11:13:09;;;;;;;63.67;31.15;;;6.90;90.60;;;;;;5056370;28;20098;-46
2021/12/08 11:15:35;;;;;;;53.28;26.13;;;6.90;90.70;;;;;;5056263;28;20072;-45
2021/12/08 11:18:23;;;;;;;67.60;37.63;;;6.90;90.60;;;;;;5056303;28;20063;-35
2021/12/08 11:21:02;;;;;;;54.50;26.58;;;7.00;90.60;;;;;;5053200;28;20377;-33
2021/12/08 11:23:46;;;;;;;61.22;29.52;;;7.00;90.70;;;;;;5042450;28;20037;-35
2021/12/08 11:26:36;;;;;;;56.83;25.95;;;7.00;90.70;;;;;;5045761;28;20444;-34
2021/12/08 11:29:09;;;;;;;57.78;30.67;;;7.00;90.60;;;;;;5051380;28;20029;-33
2021/12/08 11:31:36;;;;;;;51.70;24.77;;;7.00;90.70;;;;;;5045903;28;20074;-44
2021/12/08 11:34:05;;;;;;;77.40;38.88;;;7.00;90.70;;;;;;5044347;28;20033;-45
2021/12/08 11:36:41;;;;;;;53.78;25.38;;;7.00;90.70;;;;;;5045228;28;20036;-35
2021/12/08 11:39:19;;;;;;;45.45;24.00;;;7.00;90.60;;;;;;5045391;28;20167;-33
2021/12/08 11:41:51;;;;;;;51.83;26.92;;;7.00;90.50;;;;;;5045220;28;20108;-46
2021/12/08 11:44:24;;;;;;;48.25;25.27;;;7.00;90.50;;;;;;5043928;28;20029;-35
2021/12/08 11:46:55;;;;;;;56.33;27.08;;;7.00;90.60;;;;;;5043652;28;20036;-45
2021/12/08 11:49:24;;;;;;;61.22;33.30;;;7.00;90.60;;;;;;5044117;28;20429;-33
2021/12/08 11:52:06;;;;;;;56.55;27.77;;;7.00;90.70;;;;;;5043455;28;20044;-35
2021/12/08 11:54:35;;;;;;;54.03;27.95;;;7.00;90.70;;;;;;5045225;28;20037;-45
2021/12/08 11:57:10;;;;;;;58.78;28.15;;;7.00;90.70;;;;;;5044255;28;20125;-34
2021/12/08 11:59:50;;;;;;;53.38;25.77;;;7.00;90.60;;;;;;5042233;28;20076;-33
2021/12/08 12:02:18;;;;;;;57.92;27.08;;;7.00;90.60;;;;;;5043869;28;20118;-33
2021/12/08 12:04:45;;;;;;;60.35;28.80;;;7.00;90.70;;;;;;5049219;28;20033;-33
2021/12/08 12:07:12;;;;;;;68.15;30.38;;;7.00;90.60;;;;;;5054498;28;20078;-34
2021/12/08 12:09:38;;;;;;;61.95;30.40;;;7.00;90.60;;;;;;5055016;28;20332;-35
2021/12/08 12:12:04;;;;;;;58.83;27.15;;;7.00;90.60;;;;;;5053410;28;20116;-44
2021/12/08 12:14:30;;;;;;;72.53;32.67;;;7.00;90.60;;;;;;5048682;28;20045;-34
2021/12/08 12:16:56;;;;;;;65.97;30.48;;;7.00;90.60;;;;;;5037285;28;20048;-33
2021/12/08 12:19:25;;;;;;;90.85;35.75;;;6.90;90.60;;;;;;5039877;28;20025;-34
2021/12/08 12:22:24;;;;;;;73.67;32.33;;;7.00;90.70;;;;;;5042719;28;20021;-33
2021/12/08 12:25:10;;;;;;;75.03;31.13;;;7.00;90.70;;;;;;5045368;28;20380;-33
2021/12/08 12:27:57;;;;;;;102.45;33.05;;;7.00;90.70;;;;;;5041867;28;20121;-34
2021/12/08 12:31:00;;;;;;;77.20;29.98;;;6.90;90.70;;;;;;5047519;28;20033;-34
2021/12/08 12:33:26;;;;;;;82.38;29.27;;;7.00;90.60;;;;;;5041127;28;20041;-37
2021/12/08 12:35:54;;;;;;;106.65;35.65;;;6.90;90.70;;;;;;5042707;28;20379;-33
2021/12/08 12:38:34;;;;;;;109.38;39.03;;;6.90;90.70;;;;;;5045016;28;20013;-46
2021/12/08 12:41:01;;;;;;;79.63;33.60;;;6.90;90.70;;;;;;5045606;28;20060;-35
2021/12/08 12:43:38;;;;;;;103.75;37.38;;;6.90;90.80;;;;;;5050898;28;20025;-46
2021/12/08 12:46:13;;;;;;;83.75;33.03;;;6.90;90.90;;;;;;5058855;28;20029;-33
2021/12/08 12:48:40;;;;;;;99.25;37.85;;;6.90;91.00;;;;;;5042881;28;20095;-33
2021/12/08 12:51:07;;;;;;;90.38;31.63;;;6.90;91.10;;;;;;5046156;28;20702;-45
2021/12/08 12:53:37;;;;;;;81.43;31.40;;;6.90;91.10;;;;;;5054933;28;20018;-45
2021/12/08 12:56:03;;;;;;;90.10;33.97;;;6.90;91.20;;;;;;5041397;28;20029;-34
2021/12/08 12:58:44;;;;;;;146.13;31.92;;;6.90;91.30;;;;;;5039095;28;20432;-45
2021/12/08 13:01:14;;;;;;;94.28;31.23;;;6.90;91.20;;;;;;5037991;28;20333;-46
2021/12/08 13:03:56;;;;;;;146.30;37.75;;;6.90;91.30;;;;;;5039087;28;20437;-46
2021/12/08 13:06:49;;;;;;;82.57;29.80;;;6.90;91.30;;;;;;5039193;28;20053;-33
2021/12/08 13:09:53;;;;;;;125.28;32.75;;;6.90;91.30;;;;;;5038722;28;20056;-45
2021/12/08 13:12:40;;;;;;;187.98;32.85;;;6.90;91.20;;;;;;5036608;28;20038;-34
2021/12/08 13:15:20;;;;;;;246.50;40.63;;;6.90;91.20;;;;;;5041939;28;20045;-33
2021/12/08 13:18:13;;;;;;;156.00;35.55;;;6.90;91.30;;;;;;5046408;28;20053;-37
2021/12/08 13:21:02;;;;;;;172.45;35.67;;;6.90;91.20;;;;;;5043395;28;20037;-45
2021/12/08 13:23:30;;;;;;;116.40;30.65;;;7.00;91.40;;;;;;5047236;28;20091;-34
2021/12/08 13:26:01;;;;;;;191.48;34.50;;;6.90;91.40;;;;;;5046748;28;20309;-45
2021/12/08 13:28:46;;;;;;;91.95;30.95;;;7.00;91.40;;;;;;5046885;28;20021;-34
2021/12/08 13:31:26;;;;;;;127.35;35.70;;;7.00;91.30;;;;;;5047417;28;20091;-34
2021/12/08 13:33:54;;;;;;;274.07;43.83;;;7.00;91.50;;;;;;5041667;28;20029;-34
2021/12/08 13:36:19;;;;;;;141.48;33.28;;;6.90;91.50;;;;;;5046338;28;20397;-45
2021/12/08 13:38:58;;;;;;;250.35;45.67;;;7.00;91.50;;;;;;5051746;28;20032;-40
2021/12/08 13:41:26;;;;;;;183.00;41.97;;;7.00;91.50;;;;;;5048484;28;20025;-46
2021/12/08 13:43:54;;;;;;;82.45;30.02;;;7.00;91.60;;;;;;5046675;28;20432;-45
2021/12/08 13:46:41;;;;;;;190.70;39.00;;;7.00;91.60;;;;;;5056811;28;20025;-45
2021/12/08 13:49:28;;;;;;;79.03;30.67;;;7.00;91.40;;;;;;5046661;28;20136;-36
2021/12/08 13:52:00;;;;;;;255.85;40.63;;;7.00;91.50;;;;;;5047568;28;20057;-35
2021/12/08 13:54:30;;;;;;;162.35;37.33;;;7.00;91.60;;;;;;5053450;28;20041;-33
2021/12/08 13:56:57;;;;;;;110.90;35.57;;;7.00;91.60;;;;;;5053537;28;20048;-46